sensor_id;sensor_type;location;lat;lon;timestamp;P1;durP1;ratioP1;P2;durP2;ratioP2
2618;SDS011;1319;52.346;13.096;2023-05-07T00:01:05;28.37;;;15.43;;
2618;SDS011;1319;52.346;13.096;2023-05-07T00:03:31;24.43;;;14.83;;
2618;SDS011;1319;52.346;13.096;2023-05-07T00:05:57;25.80;;;15.53;;
2618;SDS011;1319;52.346;13.096;2023-05-07T00:08:22;25.03;;;15.67;;
2618;SDS011;1319;52.346;13.096;2023-05-07T00:10:47;21.47;;;15.07;;
2618;SDS011;1319;52.346;13.096;2023-05-07T00:13:12;19.80;;;14.83;;
2618;SDS011;1319;52.346;13.096;2023-05-07T00:15:38;25.33;;;15.27;;
2618;SDS011;1319;52.346;13.096;2023-05-07T00:18:03;18.77;;;14.33;;
2618;SDS011;1319;52.346;13.096;2023-05-07T00:20:28;24.23;;;14.97;;
2618;SDS011;1319;52.346;13.096;2023-05-07T00:22:53;27.47;;;15.20;;
2618;SDS011;1319;52.346;13.096;2023-05-07T00:25:18;19.23;;;14.47;;
2618;SDS011;1319;52.346;13.096;2023-05-07T00:27:44;20.53;;;14.97;;
2618;SDS011;1319;52.346;13.096;2023-05-07T00:30:10;23.23;;;15.00;;
2618;SDS011;1319;52.346;13.096;2023-05-07T00:32:35;21.27;;;14.73;;
2618;SDS011;1319;52.346;13.096;2023-05-07T00:35:01;22.43;;;14.37;;
2618;SDS011;1319;52.346;13.096;2023-05-07T00:37:26;19.90;;;13.33;;
2618;SDS011;1319;52.346;13.096;2023-05-07T00:39:51;19.50;;;13.97;;
2618;SDS011;1319;52.346;13.096;2023-05-07T00:42:17;19.93;;;13.67;;
2618;SDS011;1319;52.346;13.096;2023-05-07T00:44:43;21.63;;;13.63;;
2618;SDS011;1319;52.346;13.096;2023-05-07T00:47:08;20.83;;;13.70;;
2618;SDS011;1319;52.346;13.096;2023-05-07T00:49:41;19.63;;;14.03;;
2618;SDS011;1319;52.346;13.096;2023-05-07T00:52:07;18.60;;;13.23;;
2618;SDS011;1319;52.346;13.096;2023-05-07T00:54:33;22.00;;;13.50;;
2618;SDS011;1319;52.346;13.096;2023-05-07T00:56:58;18.63;;;13.13;;
2618;SDS011;1319;52.346;13.096;2023-05-07T00:59:23;22.10;;;13.70;;
2618;SDS011;1319;52.346;13.096;2023-05-07T01:01:49;20.00;;;12.93;;
2618;SDS011;1319;52.346;13.096;2023-05-07T01:04:14;22.40;;;13.97;;
2618;SDS011;1319;52.346;13.096;2023-05-07T01:06:39;20.87;;;13.50;;
2618;SDS011;1319;52.346;13.096;2023-05-07T01:09:05;18.97;;;13.30;;
2618;SDS011;1319;52.346;13.096;2023-05-07T01:11:31;21.40;;;13.63;;
2618;SDS011;1319;52.346;13.096;2023-05-07T01:13:56;19.93;;;13.17;;
2618;SDS011;1319;52.346;13.096;2023-05-07T01:16:23;20.93;;;13.43;;
2618;SDS011;1319;52.346;13.096;2023-05-07T01:18:49;19.33;;;13.53;;
2618;SDS011;1319;52.346;13.096;2023-05-07T01:21:14;19.33;;;13.67;;
2618;SDS011;1319;52.346;13.096;2023-05-07T01:23:40;18.53;;;12.83;;
2618;SDS011;1319;52.346;13.096;2023-05-07T01:26:06;20.63;;;13.50;;
2618;SDS011;1319;52.346;13.096;2023-05-07T01:28:31;18.37;;;13.23;;
2618;SDS011;1319;52.346;13.096;2023-05-07T01:31:00;18.13;;;13.07;;
2618;SDS011;1319;52.346;13.096;2023-05-07T01:33:26;23.77;;;12.70;;
2618;SDS011;1319;52.346;13.096;2023-05-07T01:35:53;19.90;;;12.90;;
2618;SDS011;1319;52.346;13.096;2023-05-07T01:38:18;20.43;;;13.03;;
2618;SDS011;1319;52.346;13.096;2023-05-07T01:40:44;17.03;;;11.73;;
2618;SDS011;1319;52.346;13.096;2023-05-07T01:43:10;16.03;;;12.43;;
2618;SDS011;1319;52.346;13.096;2023-05-07T01:45:35;16.60;;;12.03;;
2618;SDS011;1319;52.346;13.096;2023-05-07T01:48:01;16.20;;;11.53;;
2618;SDS011;1319;52.346;13.096;2023-05-07T01:50:27;16.37;;;11.73;;
2618;SDS011;1319;52.346;13.096;2023-05-07T01:52:52;15.70;;;12.47;;
2618;SDS011;1319;52.346;13.096;2023-05-07T01:55:17;16.93;;;12.53;;
2618;SDS011;1319;52.346;13.096;2023-05-07T01:57:43;17.53;;;12.03;;
2618;SDS011;1319;52.346;13.096;2023-05-07T02:00:08;18.63;;;11.73;;
2618;SDS011;1319;52.346;13.096;2023-05-07T02:02:34;17.93;;;12.10;;
2618;SDS011;1319;52.346;13.096;2023-05-07T02:04:59;18.13;;;11.60;;
2618;SDS011;1319;52.346;13.096;2023-05-07T02:07:25;15.73;;;11.63;;
2618;SDS011;1319;52.346;13.096;2023-05-07T02:09:50;14.50;;;11.70;;
2618;SDS011;1319;52.346;13.096;2023-05-07T02:12:15;15.23;;;11.60;;
2618;SDS011;1319;52.346;13.096;2023-05-07T02:14:41;16.23;;;12.23;;
2618;SDS011;1319;52.346;13.096;2023-05-07T02:17:06;14.63;;;11.37;;
2618;SDS011;1319;52.346;13.096;2023-05-07T02:19:31;14.73;;;11.40;;
2618;SDS011;1319;52.346;13.096;2023-05-07T02:21:56;18.33;;;11.30;;
2618;SDS011;1319;52.346;13.096;2023-05-07T02:24:21;14.77;;;11.43;;
2618;SDS011;1319;52.346;13.096;2023-05-07T02:26:47;17.40;;;11.47;;
2618;SDS011;1319;52.346;13.096;2023-05-07T02:29:12;17.17;;;12.03;;
2618;SDS011;1319;52.346;13.096;2023-05-07T02:31:37;15.03;;;11.30;;
2618;SDS011;1319;52.346;13.096;2023-05-07T02:34:02;16.57;;;11.03;;
2618;SDS011;1319;52.346;13.096;2023-05-07T02:36:28;16.07;;;11.27;;
2618;SDS011;1319;52.346;13.096;2023-05-07T02:38:54;16.07;;;11.10;;
2618;SDS011;1319;52.346;13.096;2023-05-07T02:41:19;18.57;;;11.27;;
2618;SDS011;1319;52.346;13.096;2023-05-07T02:43:45;14.70;;;11.07;;
2618;SDS011;1319;52.346;13.096;2023-05-07T02:46:11;14.30;;;10.43;;
2618;SDS011;1319;52.346;13.096;2023-05-07T02:48:37;16.63;;;10.63;;
2618;SDS011;1319;52.346;13.096;2023-05-07T02:51:02;18.23;;;11.60;;
2618;SDS011;1319;52.346;13.096;2023-05-07T02:53:28;14.10;;;10.30;;
2618;SDS011;1319;52.346;13.096;2023-05-07T02:55:55;15.57;;;10.73;;
2618;SDS011;1319;52.346;13.096;2023-05-07T02:58:20;15.47;;;11.23;;
2618;SDS011;1319;52.346;13.096;2023-05-07T03:00:45;13.97;;;11.27;;
2618;SDS011;1319;52.346;13.096;2023-05-07T03:03:11;15.33;;;11.07;;
2618;SDS011;1319;52.346;13.096;2023-05-07T03:05:36;17.13;;;10.90;;
2618;SDS011;1319;52.346;13.096;2023-05-07T03:08:01;16.43;;;11.20;;
2618;SDS011;1319;52.346;13.096;2023-05-07T03:10:26;14.13;;;10.43;;
2618;SDS011;1319;52.346;13.096;2023-05-07T03:12:52;15.33;;;10.93;;
2618;SDS011;1319;52.346;13.096;2023-05-07T03:15:17;15.73;;;11.13;;
2618;SDS011;1319;52.346;13.096;2023-05-07T03:17:42;16.53;;;10.63;;
2618;SDS011;1319;52.346;13.096;2023-05-07T03:20:08;14.90;;;10.80;;
2618;SDS011;1319;52.346;13.096;2023-05-07T03:22:34;14.83;;;10.40;;
2618;SDS011;1319;52.346;13.096;2023-05-07T03:24:59;14.87;;;10.90;;
2618;SDS011;1319;52.346;13.096;2023-05-07T03:27:25;17.37;;;11.40;;
2618;SDS011;1319;52.346;13.096;2023-05-07T03:29:50;15.17;;;11.40;;
2618;SDS011;1319;52.346;13.096;2023-05-07T03:32:15;15.20;;;10.77;;
2618;SDS011;1319;52.346;13.096;2023-05-07T03:34:40;14.23;;;11.17;;
2618;SDS011;1319;52.346;13.096;2023-05-07T03:37:06;14.57;;;11.20;;
2618;SDS011;1319;52.346;13.096;2023-05-07T03:39:31;16.90;;;11.50;;
2618;SDS011;1319;52.346;13.096;2023-05-07T03:41:57;14.67;;;10.90;;
2618;SDS011;1319;52.346;13.096;2023-05-07T03:44:22;16.10;;;11.60;;
2618;SDS011;1319;52.346;13.096;2023-05-07T03:46:47;15.90;;;10.80;;
2618;SDS011;1319;52.346;13.096;2023-05-07T03:49:13;14.13;;;10.93;;
2618;SDS011;1319;52.346;13.096;2023-05-07T03:51:38;16.77;;;10.90;;
2618;SDS011;1319;52.346;13.096;2023-05-07T03:54:03;21.87;;;11.33;;
2618;SDS011;1319;52.346;13.096;2023-05-07T03:56:28;17.90;;;11.67;;
2618;SDS011;1319;52.346;13.096;2023-05-07T03:58:54;15.43;;;11.00;;
2618;SDS011;1319;52.346;13.096;2023-05-07T04:01:19;17.50;;;10.97;;
2618;SDS011;1319;52.346;13.096;2023-05-07T04:03:45;16.00;;;11.07;;
2618;SDS011;1319;52.346;13.096;2023-05-07T04:06:10;16.77;;;11.10;;
2618;SDS011;1319;52.346;13.096;2023-05-07T04:08:35;14.67;;;10.10;;
2618;SDS011;1319;52.346;13.096;2023-05-07T04:11:01;16.20;;;10.70;;
2618;SDS011;1319;52.346;13.096;2023-05-07T04:13:26;14.17;;;10.37;;
2618;SDS011;1319;52.346;13.096;2023-05-07T04:15:52;17.80;;;10.60;;
2618;SDS011;1319;52.346;13.096;2023-05-07T04:18:17;14.60;;;9.80;;
2618;SDS011;1319;52.346;13.096;2023-05-07T04:20:42;16.13;;;10.57;;
2618;SDS011;1319;52.346;13.096;2023-05-07T04:23:07;15.70;;;10.57;;
2618;SDS011;1319;52.346;13.096;2023-05-07T04:25:33;13.97;;;10.40;;
2618;SDS011;1319;52.346;13.096;2023-05-07T04:27:58;15.63;;;11.23;;
2618;SDS011;1319;52.346;13.096;2023-05-07T04:30:24;15.93;;;10.57;;
2618;SDS011;1319;52.346;13.096;2023-05-07T04:32:49;13.67;;;10.23;;
2618;SDS011;1319;52.346;13.096;2023-05-07T04:35:14;14.33;;;10.37;;
2618;SDS011;1319;52.346;13.096;2023-05-07T04:37:40;17.43;;;10.70;;
2618;SDS011;1319;52.346;13.096;2023-05-07T04:40:05;13.07;;;9.93;;
2618;SDS011;1319;52.346;13.096;2023-05-07T04:42:30;17.23;;;10.47;;
2618;SDS011;1319;52.346;13.096;2023-05-07T04:44:56;14.93;;;10.00;;
2618;SDS011;1319;52.346;13.096;2023-05-07T04:47:21;15.67;;;10.93;;
2618;SDS011;1319;52.346;13.096;2023-05-07T04:49:46;17.27;;;11.50;;
2618;SDS011;1319;52.346;13.096;2023-05-07T04:52:11;15.97;;;11.23;;
2618;SDS011;1319;52.346;13.096;2023-05-07T04:54:37;15.37;;;11.20;;
2618;SDS011;1319;52.346;13.096;2023-05-07T04:57:03;15.90;;;11.33;;
2618;SDS011;1319;52.346;13.096;2023-05-07T04:59:28;17.73;;;11.13;;
2618;SDS011;1319;52.346;13.096;2023-05-07T05:01:53;16.20;;;11.33;;
2618;SDS011;1319;52.346;13.096;2023-05-07T05:04:18;16.40;;;11.10;;
2618;SDS011;1319;52.346;13.096;2023-05-07T05:06:44;15.53;;;11.83;;
2618;SDS011;1319;52.346;13.096;2023-05-07T05:09:09;15.30;;;11.20;;
2618;SDS011;1319;52.346;13.096;2023-05-07T05:11:34;16.10;;;11.20;;
2618;SDS011;1319;52.346;13.096;2023-05-07T05:14:00;15.13;;;10.87;;
2618;SDS011;1319;52.346;13.096;2023-05-07T05:16:25;15.43;;;11.50;;
2618;SDS011;1319;52.346;13.096;2023-05-07T05:18:50;13.50;;;9.97;;
2618;SDS011;1319;52.346;13.096;2023-05-07T05:21:18;14.33;;;11.10;;
2618;SDS011;1319;52.346;13.096;2023-05-07T05:24:20;17.40;;;11.10;;
2618;SDS011;1319;52.346;13.096;2023-05-07T05:27:08;15.40;;;11.00;;
2618;SDS011;1319;52.346;13.096;2023-05-07T05:29:52;15.43;;;10.40;;
2618;SDS011;1319;52.346;13.096;2023-05-07T05:32:34;16.07;;;10.57;;
2618;SDS011;1319;52.346;13.096;2023-05-07T05:35:01;15.57;;;10.37;;
2618;SDS011;1319;52.346;13.096;2023-05-07T05:37:33;13.63;;;10.30;;
2618;SDS011;1319;52.346;13.096;2023-05-07T05:40:20;14.73;;;10.23;;
2618;SDS011;1319;52.346;13.096;2023-05-07T05:45:37;13.50;;;10.70;;
2618;SDS011;1319;52.346;13.096;2023-05-07T05:48:05;12.47;;;10.50;;
2618;SDS011;1319;52.346;13.096;2023-05-07T05:50:34;13.53;;;10.53;;
2618;SDS011;1319;52.346;13.096;2023-05-07T05:53:29;13.27;;;10.30;;
2618;SDS011;1319;52.346;13.096;2023-05-07T05:59:00;14.40;;;10.53;;
2618;SDS011;1319;52.346;13.096;2023-05-07T06:01:40;14.77;;;10.53;;
2618;SDS011;1319;52.346;13.096;2023-05-07T06:04:11;15.50;;;10.77;;
2618;SDS011;1319;52.346;13.096;2023-05-07T06:07:16;13.93;;;9.87;;
2618;SDS011;1319;52.346;13.096;2023-05-07T06:10:35;12.87;;;9.87;;
2618;SDS011;1319;52.346;13.096;2023-05-07T06:13:36;14.37;;;9.97;;
2618;SDS011;1319;52.346;13.096;2023-05-07T06:16:38;12.87;;;9.37;;
2618;SDS011;1319;52.346;13.096;2023-05-07T06:19:21;14.27;;;9.43;;
2618;SDS011;1319;52.346;13.096;2023-05-07T06:21:53;12.70;;;9.70;;
2618;SDS011;1319;52.346;13.096;2023-05-07T06:24:46;13.90;;;9.03;;
2618;SDS011;1319;52.346;13.096;2023-05-07T06:27:27;11.27;;;8.20;;
2618;SDS011;1319;52.346;13.096;2023-05-07T06:30:06;15.73;;;8.60;;
2618;SDS011;1319;52.346;13.096;2023-05-07T06:32:57;10.67;;;8.43;;
2618;SDS011;1319;52.346;13.096;2023-05-07T06:35:45;12.63;;;8.37;;
2618;SDS011;1319;52.346;13.096;2023-05-07T06:38:48;11.80;;;8.20;;
2618;SDS011;1319;52.346;13.096;2023-05-07T06:41:41;10.27;;;8.40;;
2618;SDS011;1319;52.346;13.096;2023-05-07T06:47:55;13.23;;;8.67;;
2618;SDS011;1319;52.346;13.096;2023-05-07T06:50:41;15.03;;;8.00;;
2618;SDS011;1319;52.346;13.096;2023-05-07T06:53:54;10.20;;;7.70;;
2618;SDS011;1319;52.346;13.096;2023-05-07T06:59:18;12.53;;;7.90;;
2618;SDS011;1319;52.346;13.096;2023-05-07T07:02:11;9.17;;;7.60;;
2618;SDS011;1319;52.346;13.096;2023-05-07T07:04:57;11.33;;;7.27;;
2618;SDS011;1319;52.346;13.096;2023-05-07T07:07:47;9.00;;;7.00;;
2618;SDS011;1319;52.346;13.096;2023-05-07T07:10:24;9.93;;;7.20;;
2618;SDS011;1319;52.346;13.096;2023-05-07T07:13:08;8.93;;;7.43;;
2618;SDS011;1319;52.346;13.096;2023-05-07T07:15:55;12.40;;;7.13;;
2618;SDS011;1319;52.346;13.096;2023-05-07T07:18:39;9.83;;;7.80;;
2618;SDS011;1319;52.346;13.096;2023-05-07T07:21:20;8.17;;;6.97;;
2618;SDS011;1319;52.346;13.096;2023-05-07T07:23:57;7.70;;;6.60;;
2618;SDS011;1319;52.346;13.096;2023-05-07T07:27:01;9.07;;;6.63;;
2618;SDS011;1319;52.346;13.096;2023-05-07T07:29:59;7.50;;;6.00;;
2618;SDS011;1319;52.346;13.096;2023-05-07T07:32:31;9.67;;;6.10;;
2618;SDS011;1319;52.346;13.096;2023-05-07T07:35:21;8.13;;;6.47;;
2618;SDS011;1319;52.346;13.096;2023-05-07T07:38:02;7.97;;;5.70;;
2618;SDS011;1319;52.346;13.096;2023-05-07T07:41:03;6.63;;;5.70;;
2618;SDS011;1319;52.346;13.096;2023-05-07T07:44:00;6.57;;;5.40;;
2618;SDS011;1319;52.346;13.096;2023-05-07T07:46:59;7.57;;;5.20;;
2618;SDS011;1319;52.346;13.096;2023-05-07T07:49:59;5.10;;;4.60;;
2618;SDS011;1319;52.346;13.096;2023-05-07T07:52:37;7.73;;;4.80;;
2618;SDS011;1319;52.346;13.096;2023-05-07T07:55:55;6.43;;;4.90;;
2618;SDS011;1319;52.346;13.096;2023-05-07T07:59:12;6.63;;;5.70;;
2618;SDS011;1319;52.346;13.096;2023-05-07T08:02:03;8.37;;;5.97;;
2618;SDS011;1319;52.346;13.096;2023-05-07T08:04:33;7.77;;;5.23;;
2618;SDS011;1319;52.346;13.096;2023-05-07T08:07:24;6.07;;;5.47;;
2618;SDS011;1319;52.346;13.096;2023-05-07T08:09:59;8.77;;;5.00;;
2618;SDS011;1319;52.346;13.096;2023-05-07T08:12:55;5.83;;;5.23;;
2618;SDS011;1319;52.346;13.096;2023-05-07T08:15:47;8.83;;;5.00;;
2618;SDS011;1319;52.346;13.096;2023-05-07T08:18:19;5.80;;;4.93;;
2618;SDS011;1319;52.346;13.096;2023-05-07T08:20:54;6.47;;;5.50;;
2618;SDS011;1319;52.346;13.096;2023-05-07T08:26:13;6.00;;;5.10;;
2618;SDS011;1319;52.346;13.096;2023-05-07T08:29:32;5.70;;;4.43;;
2618;SDS011;1319;52.346;13.096;2023-05-07T08:32:03;4.67;;;4.23;;
2618;SDS011;1319;52.346;13.096;2023-05-07T08:34:52;5.50;;;4.30;;
2618;SDS011;1319;52.346;13.096;2023-05-07T08:37:17;6.50;;;4.47;;
2618;SDS011;1319;52.346;13.096;2023-05-07T08:40:07;5.23;;;3.97;;
2618;SDS011;1319;52.346;13.096;2023-05-07T08:46:20;4.50;;;4.10;;
2618;SDS011;1319;52.346;13.096;2023-05-07T08:49:06;7.27;;;4.40;;
2618;SDS011;1319;52.346;13.096;2023-05-07T08:52:02;10.50;;;4.77;;
2618;SDS011;1319;52.346;13.096;2023-05-07T08:58:03;5.30;;;3.90;;
2618;SDS011;1319;52.346;13.096;2023-05-07T09:04:40;3.87;;;3.50;;
2618;SDS011;1319;52.346;13.096;2023-05-07T09:11:00;4.20;;;3.90;;
2618;SDS011;1319;52.346;13.096;2023-05-07T09:13:54;5.87;;;4.10;;
2618;SDS011;1319;52.346;13.096;2023-05-07T09:16:45;3.70;;;3.10;;
2618;SDS011;1319;52.346;13.096;2023-05-07T09:19:25;3.53;;;3.23;;
2618;SDS011;1319;52.346;13.096;2023-05-07T09:22:26;3.70;;;3.40;;
2618;SDS011;1319;52.346;13.096;2023-05-07T09:25:45;3.67;;;2.70;;
2618;SDS011;1319;52.346;13.096;2023-05-07T09:28:55;5.13;;;3.20;;
2618;SDS011;1319;52.346;13.096;2023-05-07T09:31:41;3.37;;;3.07;;
2618;SDS011;1319;52.346;13.096;2023-05-07T09:34:34;3.20;;;3.00;;
2618;SDS011;1319;52.346;13.096;2023-05-07T09:37:21;3.63;;;3.10;;
2618;SDS011;1319;52.346;13.096;2023-05-07T09:39:48;3.10;;;2.90;;
2618;SDS011;1319;52.346;13.096;2023-05-07T09:42:13;4.50;;;3.23;;
2618;SDS011;1319;52.346;13.096;2023-05-07T09:44:43;3.70;;;3.40;;
2618;SDS011;1319;52.346;13.096;2023-05-07T09:47:08;6.83;;;4.10;;
2618;SDS011;1319;52.346;13.096;2023-05-07T09:49:35;3.87;;;3.57;;
2618;SDS011;1319;52.346;13.096;2023-05-07T09:52:02;3.83;;;3.33;;
2618;SDS011;1319;52.346;13.096;2023-05-07T09:54:28;4.80;;;3.30;;
2618;SDS011;1319;52.346;13.096;2023-05-07T09:56:54;4.53;;;3.33;;
2618;SDS011;1319;52.346;13.096;2023-05-07T09:59:19;3.50;;;3.20;;
2618;SDS011;1319;52.346;13.096;2023-05-07T10:01:45;3.10;;;2.90;;
2618;SDS011;1319;52.346;13.096;2023-05-07T10:04:10;3.13;;;2.90;;
2618;SDS011;1319;52.346;13.096;2023-05-07T10:06:36;3.20;;;2.90;;
2618;SDS011;1319;52.346;13.096;2023-05-07T10:09:02;3.30;;;2.87;;
2618;SDS011;1319;52.346;13.096;2023-05-07T10:11:28;3.07;;;2.87;;
2618;SDS011;1319;52.346;13.096;2023-05-07T10:13:53;2.97;;;2.77;;
2618;SDS011;1319;52.346;13.096;2023-05-07T10:16:18;5.60;;;2.90;;
2618;SDS011;1319;52.346;13.096;2023-05-07T10:18:44;3.40;;;2.40;;
2618;SDS011;1319;52.346;13.096;2023-05-07T10:21:11;3.77;;;2.50;;
2618;SDS011;1319;52.346;13.096;2023-05-07T10:23:38;3.10;;;2.90;;
2618;SDS011;1319;52.346;13.096;2023-05-07T10:26:04;3.27;;;2.97;;
2618;SDS011;1319;52.346;13.096;2023-05-07T10:28:30;2.93;;;2.73;;
2618;SDS011;1319;52.346;13.096;2023-05-07T10:33:55;5.03;;;2.60;;
2618;SDS011;1319;52.346;13.096;2023-05-07T10:36:21;2.70;;;2.50;;
2618;SDS011;1319;52.346;13.096;2023-05-07T10:38:47;3.23;;;2.73;;
2618;SDS011;1319;52.346;13.096;2023-05-07T10:41:12;5.47;;;2.43;;
2618;SDS011;1319;52.346;13.096;2023-05-07T10:43:38;2.30;;;2.20;;
2618;SDS011;1319;52.346;13.096;2023-05-07T10:46:17;5.07;;;2.50;;
2618;SDS011;1319;52.346;13.096;2023-05-07T10:51:26;3.80;;;2.50;;
2618;SDS011;1319;52.346;13.096;2023-05-07T10:56:36;3.63;;;2.80;;
2618;SDS011;1319;52.346;13.096;2023-05-07T11:01:55;2.93;;;2.83;;
2618;SDS011;1319;52.346;13.096;2023-05-07T11:04:21;3.47;;;2.80;;
2618;SDS011;1319;52.346;13.096;2023-05-07T11:15:01;2.67;;;2.50;;
2618;SDS011;1319;52.346;13.096;2023-05-07T11:53:48;2.38;;;2.10;;
2618;SDS011;1319;52.346;13.096;2023-05-07T11:56:14;3.20;;;2.10;;
2618;SDS011;1319;52.346;13.096;2023-05-07T11:58:40;4.20;;;2.00;;
2618;SDS011;1319;52.346;13.096;2023-05-07T13:33:05;2.00;;;1.90;;
2618;SDS011;1319;52.346;13.096;2023-05-07T13:40:21;4.80;;;1.67;;
2618;SDS011;1319;52.346;13.096;2023-05-07T13:42:47;4.80;;;1.83;;
2618;SDS011;1319;52.346;13.096;2023-05-07T13:45:12;1.77;;;1.67;;
2618;SDS011;1319;52.346;13.096;2023-05-07T13:47:40;1.63;;;1.52;;
2618;SDS011;1319;52.346;13.096;2023-05-07T13:50:05;2.05;;;1.70;;
2618;SDS011;1319;52.346;13.096;2023-05-07T13:52:31;1.80;;;1.70;;
2618;SDS011;1319;52.346;13.096;2023-05-07T13:54:56;1.80;;;1.70;;
2618;SDS011;1319;52.346;13.096;2023-05-07T13:57:23;1.83;;;1.75;;
2618;SDS011;1319;52.346;13.096;2023-05-07T13:59:49;1.70;;;1.70;;
2618;SDS011;1319;52.346;13.096;2023-05-07T14:02:14;1.90;;;1.80;;
2618;SDS011;1319;52.346;13.096;2023-05-07T14:04:40;3.55;;;1.80;;
2618;SDS011;1319;52.346;13.096;2023-05-07T14:07:05;3.53;;;3.10;;
2618;SDS011;1319;52.346;13.096;2023-05-07T14:09:30;3.42;;;2.58;;
2618;SDS011;1319;52.346;13.096;2023-05-07T14:11:55;1.95;;;1.52;;
2618;SDS011;1319;52.346;13.096;2023-05-07T14:14:21;3.45;;;2.00;;
2618;SDS011;1319;52.346;13.096;2023-05-07T14:16:46;1.85;;;1.75;;
2618;SDS011;1319;52.346;13.096;2023-05-07T14:19:11;1.50;;;1.50;;
2618;SDS011;1319;52.346;13.096;2023-05-07T14:21:36;1.40;;;1.40;;
2618;SDS011;1319;52.346;13.096;2023-05-07T14:24:02;1.48;;;1.48;;
2618;SDS011;1319;52.346;13.096;2023-05-07T14:26:27;1.75;;;1.67;;
2618;SDS011;1319;52.346;13.096;2023-05-07T14:28:52;1.63;;;1.52;;
2618;SDS011;1319;52.346;13.096;2023-05-07T14:31:20;2.08;;;1.90;;
2618;SDS011;1319;52.346;13.096;2023-05-07T14:33:45;4.88;;;1.83;;
2618;SDS011;1319;52.346;13.096;2023-05-07T14:36:10;1.55;;;1.50;;
2618;SDS011;1319;52.346;13.096;2023-05-07T14:38:35;1.60;;;1.50;;
2618;SDS011;1319;52.346;13.096;2023-05-07T14:41:01;1.80;;;1.50;;
2618;SDS011;1319;52.346;13.096;2023-05-07T14:43:26;1.70;;;1.60;;
2618;SDS011;1319;52.346;13.096;2023-05-07T14:45:51;2.75;;;1.80;;
2618;SDS011;1319;52.346;13.096;2023-05-07T14:48:17;3.83;;;1.70;;
2618;SDS011;1319;52.346;13.096;2023-05-07T14:50:42;1.60;;;1.60;;
2618;SDS011;1319;52.346;13.096;2023-05-07T14:53:07;2.20;;;2.00;;
2618;SDS011;1319;52.346;13.096;2023-05-07T14:55:33;2.00;;;1.90;;
2618;SDS011;1319;52.346;13.096;2023-05-07T14:57:58;3.92;;;1.60;;
2618;SDS011;1319;52.346;13.096;2023-05-07T15:00:24;1.60;;;1.60;;
2618;SDS011;1319;52.346;13.096;2023-05-07T15:02:49;1.98;;;1.67;;
2618;SDS011;1319;52.346;13.096;2023-05-07T15:05:14;1.98;;;1.88;;
2618;SDS011;1319;52.346;13.096;2023-05-07T15:07:39;1.88;;;1.70;;
2618;SDS011;1319;52.346;13.096;2023-05-07T15:10:05;2.80;;;2.03;;
2618;SDS011;1319;52.346;13.096;2023-05-07T15:12:30;1.67;;;1.58;;
2618;SDS011;1319;52.346;13.096;2023-05-07T15:14:55;1.73;;;1.60;;
2618;SDS011;1319;52.346;13.096;2023-05-07T15:17:21;2.53;;;1.55;;
2618;SDS011;1319;52.346;13.096;2023-05-07T15:19:46;5.97;;;1.70;;
2618;SDS011;1319;52.346;13.096;2023-05-07T15:22:11;5.72;;;1.80;;
2618;SDS011;1319;52.346;13.096;2023-05-07T15:24:36;2.25;;;1.70;;
2618;SDS011;1319;52.346;13.096;2023-05-07T15:27:01;1.50;;;1.48;;
2618;SDS011;1319;52.346;13.096;2023-05-07T15:29:28;2.78;;;1.40;;
2618;SDS011;1319;52.346;13.096;2023-05-07T15:31:53;2.40;;;1.70;;
2618;SDS011;1319;52.346;13.096;2023-05-07T15:34:19;1.83;;;1.50;;
2618;SDS011;1319;52.346;13.096;2023-05-07T15:36:44;1.80;;;1.75;;
2618;SDS011;1319;52.346;13.096;2023-05-07T15:39:09;1.95;;;1.85;;
2618;SDS011;1319;52.346;13.096;2023-05-07T15:41:35;4.57;;;1.83;;
2618;SDS011;1319;52.346;13.096;2023-05-07T15:44:02;1.95;;;1.85;;
2618;SDS011;1319;52.346;13.096;2023-05-07T15:46:27;1.80;;;1.70;;
2618;SDS011;1319;52.346;13.096;2023-05-07T15:48:53;2.55;;;1.80;;
2618;SDS011;1319;52.346;13.096;2023-05-07T15:51:18;2.17;;;2.00;;
2618;SDS011;1319;52.346;13.096;2023-05-07T15:53:44;2.67;;;1.90;;
2618;SDS011;1319;52.346;13.096;2023-05-07T15:56:09;2.07;;;1.70;;
2618;SDS011;1319;52.346;13.096;2023-05-07T15:58:35;1.70;;;1.60;;
2618;SDS011;1319;52.346;13.096;2023-05-07T16:01:01;2.80;;;1.80;;
2618;SDS011;1319;52.346;13.096;2023-05-07T16:03:27;2.33;;;2.00;;
2618;SDS011;1319;52.346;13.096;2023-05-07T16:05:52;2.97;;;1.90;;
2618;SDS011;1319;52.346;13.096;2023-05-07T16:08:18;2.03;;;1.87;;
2618;SDS011;1319;52.346;13.096;2023-05-07T16:10:43;1.83;;;1.70;;
2618;SDS011;1319;52.346;13.096;2023-05-07T16:13:08;4.30;;;1.97;;
2618;SDS011;1319;52.346;13.096;2023-05-07T16:15:33;1.67;;;1.57;;
2618;SDS011;1319;52.346;13.096;2023-05-07T16:17:59;2.17;;;2.03;;
2618;SDS011;1319;52.346;13.096;2023-05-07T16:20:28;3.60;;;1.90;;
2618;SDS011;1319;52.346;13.096;2023-05-07T16:22:56;3.33;;;1.90;;
2618;SDS011;1319;52.346;13.096;2023-05-07T16:25:21;2.33;;;1.70;;
2618;SDS011;1319;52.346;13.096;2023-05-07T16:27:46;2.13;;;1.90;;
2618;SDS011;1319;52.346;13.096;2023-05-07T16:30:12;4.20;;;1.97;;
2618;SDS011;1319;52.346;13.096;2023-05-07T16:32:37;2.00;;;1.90;;
2618;SDS011;1319;52.346;13.096;2023-05-07T16:35:02;3.87;;;1.60;;
2618;SDS011;1319;52.346;13.096;2023-05-07T16:37:28;1.67;;;1.63;;
2618;SDS011;1319;52.346;13.096;2023-05-07T16:39:53;1.80;;;1.70;;
2618;SDS011;1319;52.346;13.096;2023-05-07T16:42:20;1.97;;;1.87;;
2618;SDS011;1319;52.346;13.096;2023-05-07T16:44:45;2.43;;;1.97;;
2618;SDS011;1319;52.346;13.096;2023-05-07T16:47:10;5.03;;;1.60;;
2618;SDS011;1319;52.346;13.096;2023-05-07T16:49:36;1.63;;;1.53;;
2618;SDS011;1319;52.346;13.096;2023-05-07T16:52:01;1.60;;;1.50;;
2618;SDS011;1319;52.346;13.096;2023-05-07T16:54:26;2.17;;;1.77;;
2618;SDS011;1319;52.346;13.096;2023-05-07T16:56:51;2.43;;;1.70;;
2618;SDS011;1319;52.346;13.096;2023-05-07T16:59:17;5.67;;;1.70;;
2618;SDS011;1319;52.346;13.096;2023-05-07T17:01:42;2.43;;;1.70;;
2618;SDS011;1319;52.346;13.096;2023-05-07T17:04:07;1.83;;;1.73;;
2618;SDS011;1319;52.346;13.096;2023-05-07T17:06:33;1.70;;;1.60;;
2618;SDS011;1319;52.346;13.096;2023-05-07T17:08:58;2.07;;;1.80;;
2618;SDS011;1319;52.346;13.096;2023-05-07T17:11:23;2.43;;;1.70;;
2618;SDS011;1319;52.346;13.096;2023-05-07T17:13:51;1.93;;;1.80;;
2618;SDS011;1319;52.346;13.096;2023-05-07T17:16:16;1.87;;;1.80;;
2618;SDS011;1319;52.346;13.096;2023-05-07T17:18:41;2.30;;;1.70;;
2618;SDS011;1319;52.346;13.096;2023-05-07T17:21:07;1.90;;;1.80;;
2618;SDS011;1319;52.346;13.096;2023-05-07T17:23:32;1.90;;;1.80;;
2618;SDS011;1319;52.346;13.096;2023-05-07T17:25:57;2.00;;;1.90;;
2618;SDS011;1319;52.346;13.096;2023-05-07T17:28:22;1.80;;;1.70;;
2618;SDS011;1319;52.346;13.096;2023-05-07T17:30:48;2.27;;;1.83;;
2618;SDS011;1319;52.346;13.096;2023-05-07T17:33:13;4.17;;;2.13;;
2618;SDS011;1319;52.346;13.096;2023-05-07T17:35:39;2.13;;;1.90;;
2618;SDS011;1319;52.346;13.096;2023-05-07T17:38:04;1.87;;;1.77;;
2618;SDS011;1319;52.346;13.096;2023-05-07T17:40:29;1.80;;;1.70;;
2618;SDS011;1319;52.346;13.096;2023-05-07T17:42:54;1.60;;;1.50;;
2618;SDS011;1319;52.346;13.096;2023-05-07T17:45:20;2.10;;;1.90;;
2618;SDS011;1319;52.346;13.096;2023-05-07T17:47:45;1.83;;;1.73;;
2618;SDS011;1319;52.346;13.096;2023-05-07T17:50:11;3.33;;;1.97;;
2618;SDS011;1319;52.346;13.096;2023-05-07T17:52:37;2.47;;;2.03;;
2618;SDS011;1319;52.346;13.096;2023-05-07T17:55:02;1.83;;;1.73;;
2618;SDS011;1319;52.346;13.096;2023-05-07T17:57:28;2.10;;;2.00;;
2618;SDS011;1319;52.346;13.096;2023-05-07T17:59:55;2.03;;;1.80;;
2618;SDS011;1319;52.346;13.096;2023-05-07T18:02:20;2.00;;;1.80;;
2618;SDS011;1319;52.346;13.096;2023-05-07T18:04:46;2.80;;;2.13;;
2618;SDS011;1319;52.346;13.096;2023-05-07T18:07:11;2.13;;;1.93;;
2618;SDS011;1319;52.346;13.096;2023-05-07T18:09:36;2.03;;;1.93;;
2618;SDS011;1319;52.346;13.096;2023-05-07T18:12:01;1.80;;;1.70;;